createdAt,value
2023-01-29T00:02:54.761Z,158488.81
2023-01-29T00:05:59.128Z,158466.69
2023-01-29T00:09:02.967Z,158461.47
2023-01-29T00:12:09.929Z,158464.09
2023-01-29T00:15:13.709Z,158448.47
2023-01-29T00:18:17.688Z,158452.34
2023-01-29T00:21:23.354Z,158471.91
2023-01-29T00:24:27.364Z,158431.53
2023-01-29T00:27:31.356Z,158423.75
2023-01-29T00:30:36.537Z,158439.38
2023-01-29T00:33:40.740Z,158432.84
2023-01-29T00:36:45.624Z,158432.84
2023-01-29T00:39:49.847Z,158418.59
2023-01-29T00:43:12.705Z,158417.28
2023-01-29T00:46:16.967Z,158409.47
2023-01-29T00:49:20.864Z,158379.56
2023-01-29T00:52:25.174Z,158378.25
2023-01-29T00:55:29.316Z,158370.44
2023-01-29T00:58:36.238Z,158363.97
2023-01-29T01:01:58.744Z,158370.44
2023-01-29T01:05:03.330Z,158363.97
2023-01-29T01:08:27.148Z,158343.16
2023-01-29T01:11:30.997Z,158332.75
2023-01-29T01:14:37.821Z,158340.53
2023-01-29T01:17:41.852Z,158334.06
2023-01-29T01:20:50.384Z,158339.28
2023-01-29T01:23:54.453Z,158318.47
2023-01-29T01:26:58.580Z,158297.66
2023-01-29T01:30:02.697Z,158318.47
2023-01-29T01:33:07.198Z,158306.78
2023-01-29T01:36:11.106Z,158295.09
2023-01-29T01:39:14.975Z,158292.47
2023-01-29T01:42:19.157Z,158285.97
2023-01-29T01:45:26.118Z,158284.66
2023-01-29T01:48:30.364Z,158295.09
2023-01-29T01:51:37.497Z,158289.88
2023-01-29T01:54:43.769Z,158291.16
2023-01-29T01:57:52.100Z,158314.56
2023-01-29T02:00:56.640Z,158280.78
2023-01-29T02:04:23.328Z,158272.97
2023-01-29T02:07:46.214Z,158276.88
2023-01-29T02:10:50.191Z,158283.34
2023-01-29T02:13:54.584Z,158276.88
2023-01-29T02:17:02.174Z,158269.09
2023-01-29T02:20:18.151Z,158266.44
2023-01-29T02:23:32.935Z,158252.13
2023-01-29T02:27:05.363Z,158244.34
2023-01-29T02:30:32.157Z,158245.66
2023-01-29T02:33:45.622Z,158233.91
2023-01-29T02:36:55.953Z,158222.22
2023-01-29T02:40:25.743Z,158231.34
2023-01-29T02:43:53.099Z,158241.72
2023-01-29T02:47:09.933Z,158235.22
2023-01-29T02:50:34.657Z,158239.13
2023-01-29T02:53:46.498Z,158217.03
2023-01-29T02:57:20.171Z,158220.91
2023-01-29T03:00:28.101Z,158223.56
2023-01-29T03:03:37.701Z,158222.22
2023-01-29T03:06:45.064Z,158204.06
2023-01-29T03:09:53.487Z,158219.66
2023-01-29T03:13:07.978Z,158175.50
2023-01-29T03:16:19.613Z,158185.84
2023-01-29T03:19:36.236Z,158175.50
2023-01-29T03:22:45.185Z,158184.53
2023-01-29T03:26:12.049Z,158170.28
2023-01-29T03:29:35.077Z,158172.84
2023-01-29T03:32:39.231Z,158162.50
2023-01-29T03:35:49.674Z,158166.38
2023-01-29T03:38:53.387Z,158150.81
2023-01-29T03:42:16.360Z,158170.28
2023-01-29T03:45:31.974Z,158148.19
2023-01-29T03:48:40.600Z,158157.28
2023-01-29T03:51:56.362Z,158159.88
2023-01-29T03:55:17.884Z,158141.72
2023-01-29T03:58:31.011Z,158120.88
2023-01-29T04:01:48.841Z,158144.28
2023-01-29T04:05:02.142Z,158140.38
2023-01-29T04:08:11.310Z,158139.06
2023-01-29T04:11:20.589Z,158142.97
2023-01-29T04:14:25.519Z,158137.81
2023-01-29T04:17:37.052Z,158166.38
2023-01-29T04:20:42.290Z,158163.75
2023-01-29T04:23:46.365Z,158162.50
2023-01-29T04:27:06.874Z,158145.59
2023-01-29T04:30:59.841Z,158157.28
2023-01-29T04:34:11.813Z,158167.66
2023-01-29T04:37:28.998Z,158148.19
2023-01-29T04:41:00.357Z,158146.88
2023-01-29T04:44:26.236Z,158154.69
2023-01-29T04:47:54.646Z,158170.28
2023-01-29T04:51:17.220Z,158179.38
2023-01-29T04:54:52.175Z,158176.75
2023-01-29T04:58:28.555Z,158167.66
2023-01-29T05:01:35.571Z,158172.84
2023-01-29T05:04:41.825Z,158159.88
2023-01-29T05:07:47.097Z,158152.06
2023-01-29T05:10:53.925Z,158167.66
2023-01-29T05:13:59.532Z,158201.44
2023-01-29T05:17:09.779Z,158211.88
2023-01-29T05:20:14.392Z,158211.88
2023-01-29T05:23:22.651Z,158224.88
2023-01-29T05:26:46.363Z,158219.66
2023-01-29T05:29:50.529Z,158227.44
2023-01-29T05:32:54.568Z,158224.88
2023-01-29T05:35:59.886Z,158235.22
2023-01-29T05:39:04.240Z,158232.66
2023-01-29T05:42:08.310Z,158224.88
2023-01-29T05:45:12.184Z,158231.34
2023-01-29T05:48:16.203Z,158248.25
2023-01-29T05:51:20.718Z,158246.91
2023-01-29T05:54:24.715Z,158237.81
2023-01-29T05:57:28.829Z,158245.66
2023-01-29T06:00:32.642Z,158241.72
2023-01-29T06:03:36.655Z,158266.44
2023-01-29T06:06:40.441Z,158259.94
2023-01-29T06:09:44.469Z,158250.81
2023-01-29T06:12:48.694Z,158248.25
2023-01-29T06:15:52.924Z,158279.44
2023-01-29T06:18:57.443Z,158278.19
2023-01-29T06:22:01.683Z,158279.44
2023-01-29T06:25:06.680Z,158266.44
2023-01-29T06:28:10.651Z,158282.09
2023-01-29T06:31:33.105Z,158276.88
2023-01-29T06:34:38.856Z,158306.78
2023-01-29T06:37:43.017Z,158295.09
2023-01-29T06:40:46.906Z,158319.78
2023-01-29T06:43:51.835Z,158308.03
2023-01-29T06:46:56.131Z,158310.69
2023-01-29T06:50:00.690Z,158324.94
2023-01-29T06:53:04.819Z,158328.84
2023-01-29T06:56:09.059Z,158341.84
2023-01-29T06:59:13.067Z,158348.38
2023-01-29T07:02:17.423Z,158350.97
2023-01-29T07:05:21.305Z,158361.34
2023-01-29T07:08:25.583Z,158379.56
2023-01-29T07:11:29.353Z,158360.06
2023-01-29T07:14:33.794Z,158373.09
2023-01-29T07:17:38.597Z,158362.66
2023-01-29T07:20:43.326Z,158373.09
2023-01-29T07:23:47.681Z,158374.34
2023-01-29T07:26:51.794Z,158395.16
2023-01-29T07:29:55.831Z,158412.06
2023-01-29T07:33:07.162Z,158428.97
2023-01-29T07:36:12.964Z,158443.28
2023-01-29T07:39:16.991Z,158451.09
2023-01-29T07:42:20.939Z,158466.69
2023-01-29T07:45:25.178Z,158471.91
2023-01-29T07:48:29.786Z,158487.50
2023-01-29T07:51:33.577Z,158474.47
2023-01-29T07:54:37.385Z,158508.31
2023-01-29T07:57:41.650Z,158525.22
2023-01-29T08:00:46.078Z,158503.09
2023-01-29T08:03:51.385Z,158521.31
2023-01-29T08:06:55.606Z,158517.41
2023-01-29T08:09:59.696Z,158518.69
2023-01-29T08:13:05.515Z,158523.91
2023-01-29T08:16:09.881Z,158514.78
2023-01-29T08:19:14.110Z,158529.16
2023-01-29T08:22:18.208Z,158564.25
2023-01-29T08:25:22.587Z,158578.59
2023-01-29T08:28:27.174Z,158602.00
2023-01-29T08:31:31.403Z,158609.78
2023-01-29T08:34:35.286Z,158622.81
2023-01-29T08:37:39.503Z,158602.00
2023-01-29T08:40:44.111Z,158569.47
2023-01-29T08:43:48.459Z,158568.16
2023-01-29T08:46:52.811Z,158527.84
2023-01-29T08:49:57.026Z,158514.78
2023-01-29T08:53:03.536Z,158507.00
2023-01-29T08:56:08.142Z,158505.66
2023-01-29T08:59:12.017Z,158497.88
2023-01-29T09:02:16.145Z,158510.88
2023-01-29T09:05:20.583Z,158503.09
2023-01-29T09:08:24.927Z,158536.97
2023-01-29T09:11:28.768Z,158561.69
2023-01-29T09:14:32.870Z,158556.47
2023-01-29T09:17:37.102Z,158565.56
2023-01-29T09:20:41.074Z,158563.00
2023-01-29T09:23:45.272Z,158587.72
2023-01-29T09:26:49.621Z,158607.22
2023-01-29T09:29:53.519Z,158631.94
2023-01-29T09:32:57.572Z,158631.94
2023-01-29T09:36:03.153Z,158656.66
2023-01-29T09:39:07.048Z,158657.97
2023-01-29T09:42:52.025Z,158676.16
2023-01-29T09:46:05.868Z,158680.06
2023-01-29T09:49:21.414Z,158706.03
2023-01-29T09:52:27.597Z,158732.09
2023-01-29T09:55:43.755Z,158716.44
2023-01-29T09:58:48.150Z,158721.66
2023-01-29T10:02:23.011Z,158711.28
2023-01-29T10:05:40.916Z,158726.88
2023-01-29T10:09:03.643Z,158763.31
2023-01-29T10:12:32.447Z,158769.78
2023-01-29T10:16:04.752Z,158811.44
2023-01-29T10:19:18.156Z,158799.75
2023-01-29T10:22:50.375Z,158842.72
2023-01-29T10:25:54.645Z,158831.00
2023-01-29T10:29:01.112Z,158857.03
2023-01-29T10:32:05.970Z,158847.91
2023-01-29T10:35:22.217Z,158864.81
2023-01-29T10:38:45.982Z,158859.66
2023-01-29T10:42:20.552Z,158881.75
2023-01-29T10:45:40.538Z,158924.75
2023-01-29T10:49:00.357Z,158909.13
2023-01-29T10:52:16.643Z,158939.03
2023-01-29T10:55:40.540Z,158924.75
2023-01-29T10:58:57.486Z,158931.25
2023-01-29T11:02:03.321Z,158927.34
2023-01-29T11:05:36.334Z,158922.13
2023-01-29T11:09:03.300Z,158949.50
2023-01-29T11:12:16.606Z,158968.97
2023-01-29T11:15:29.662Z,158975.50
2023-01-29T11:19:09.884Z,158971.56
2023-01-29T11:22:21.976Z,158996.34
2023-01-29T11:25:27.573Z,159009.34
2023-01-29T11:28:45.760Z,159009.34
2023-01-29T11:31:49.477Z,158996.34
2023-01-29T11:34:57.605Z,159023.69
2023-01-29T11:38:16.658Z,159073.19
2023-01-29T11:41:22.479Z,159060.16
2023-01-29T11:44:41.535Z,159062.75
2023-01-29T11:47:53.746Z,159053.66
2023-01-29T11:51:05.556Z,159065.38
2023-01-29T11:54:17.991Z,159045.84
2023-01-29T11:57:30.207Z,159084.91
2023-01-29T12:00:36.467Z,159071.88
2023-01-29T12:03:44.605Z,159062.75
2023-01-29T12:06:53.079Z,159066.66
2023-01-29T12:09:59.698Z,159071.88
2023-01-29T12:13:09.616Z,159110.94
2023-01-29T12:16:35.390Z,159096.56
2023-01-29T12:19:54.335Z,159101.81
2023-01-29T12:23:11.743Z,159117.41
2023-01-29T12:26:36.582Z,159116.09
2023-01-29T12:30:04.949Z,159139.59
2023-01-29T12:33:39.057Z,159159.13
2023-01-29T12:36:59.467Z,159166.94
2023-01-29T12:40:12.139Z,159182.56
2023-01-29T12:43:18.524Z,159204.69
2023-01-29T12:46:28.089Z,159206.00
2023-01-29T12:49:39.524Z,159190.44
2023-01-29T12:52:49.374Z,159198.19
2023-01-29T12:56:26.666Z,159220.31
2023-01-29T12:59:37.580Z,159213.81
2023-01-29T13:02:53.846Z,159229.47
2023-01-29T13:06:06.775Z,159213.81
2023-01-29T13:09:21.985Z,159226.88
2023-01-29T13:12:27.087Z,159239.91
2023-01-29T13:15:36.425Z,159239.91
2023-01-29T13:18:47.862Z,159228.13
2023-01-29T13:21:54.675Z,159220.31
2023-01-29T13:25:05.239Z,159221.66
2023-01-29T13:28:20.846Z,159211.19
2023-01-29T13:31:34.618Z,159232.06
2023-01-29T13:34:46.824Z,159222.97
2023-01-29T13:37:55.082Z,159208.59
2023-01-29T13:41:04.642Z,159196.94
2023-01-29T13:44:28.659Z,159179.97
2023-01-29T13:47:37.064Z,159189.13
2023-01-29T13:50:43.193Z,159183.88
2023-01-29T13:54:03.936Z,159193.03
2023-01-29T13:57:33.787Z,159191.72
2023-01-29T14:00:37.646Z,159196.94
2023-01-29T14:04:04.143Z,159207.28
2023-01-29T14:07:39.194Z,159211.19
2023-01-29T14:10:43.907Z,159202.09
2023-01-29T14:13:49.939Z,159182.56
2023-01-29T14:17:02.067Z,159182.56
2023-01-29T14:20:25.695Z,159165.63
2023-01-29T14:23:50.025Z,159164.34
2023-01-29T14:26:57.586Z,159156.53
2023-01-29T14:30:09.782Z,159147.41
2023-01-29T14:33:34.248Z,159133.06
2023-01-29T14:36:41.677Z,159109.63
2023-01-29T14:39:47.648Z,159127.88
2023-01-29T14:42:57.774Z,159144.81
2023-01-29T14:46:35.991Z,159130.47
2023-01-29T14:49:57.400Z,159148.72
2023-01-29T14:53:09.729Z,159114.84
2023-01-29T14:56:36.056Z,159109.63
2023-01-29T15:00:01.826Z,159105.72
2023-01-29T15:03:44.864Z,159092.66
2023-01-29T15:07:07.431Z,159071.88
2023-01-29T15:10:39.968Z,159078.41
2023-01-29T15:14:00.726Z,159064.06
2023-01-29T15:17:17.192Z,159067.97
2023-01-29T15:20:26.688Z,159041.88
2023-01-29T15:23:33.484Z,159040.63
2023-01-29T15:26:37.628Z,159049.75
2023-01-29T15:29:44.612Z,159036.72
2023-01-29T15:32:49.304Z,159023.69
2023-01-29T15:36:08.685Z,159011.97
2023-01-29T15:39:12.624Z,159011.97
2023-01-29T15:42:21.725Z,159005.44
2023-01-29T15:45:31.922Z,159018.47
2023-01-29T15:48:40.444Z,159013.25
2023-01-29T15:51:46.215Z,159009.34
2023-01-29T15:54:51.247Z,159005.44
2023-01-29T15:57:55.286Z,158997.63
2023-01-29T16:01:01.288Z,158996.34
2023-01-29T16:04:06.110Z,159000.25
2023-01-29T16:07:11.304Z,159001.53
2023-01-29T16:10:24.345Z,158991.13
2023-01-29T16:13:31.374Z,159008.06
2023-01-29T16:16:35.521Z,159011.97
2023-01-29T16:19:39.744Z,159002.84
2023-01-29T16:22:44.540Z,158997.63
2023-01-29T16:25:49.642Z,158980.69
2023-01-29T16:28:55.120Z,158985.91
2023-01-29T16:32:02.267Z,158992.41
2023-01-29T16:35:07.621Z,158975.50
2023-01-29T16:38:28.763Z,159008.06
2023-01-29T16:41:38.101Z,158997.63
2023-01-29T16:44:58.782Z,158979.41
2023-01-29T16:48:27.788Z,158989.81
2023-01-29T16:51:38.105Z,158976.78
2023-01-29T16:54:43.210Z,158976.78
2023-01-29T16:57:53.124Z,158974.19
2023-01-29T17:01:09.330Z,158961.16
2023-01-29T17:04:15.043Z,158972.88
2023-01-29T17:07:22.345Z,158989.81
2023-01-29T17:10:29.247Z,158980.69
2023-01-29T17:13:39.340Z,158991.13
2023-01-29T17:16:53.462Z,158976.78
2023-01-29T17:19:58.677Z,158984.59
2023-01-29T17:23:02.630Z,158972.88
2023-01-29T17:26:11.588Z,158976.78
2023-01-29T17:29:20.139Z,159009.34
2023-01-29T17:32:24.820Z,158997.63
2023-01-29T17:35:48.821Z,158976.78
2023-01-29T17:38:52.815Z,158988.50
2023-01-29T17:41:58.466Z,158992.41
2023-01-29T17:45:02.573Z,158992.41
2023-01-29T17:48:21.556Z,158992.41
2023-01-29T17:51:25.454Z,158996.34
2023-01-29T17:54:29.917Z,159023.69
2023-01-29T17:57:34.014Z,159008.06
2023-01-29T18:00:37.955Z,159023.69
2023-01-29T18:03:42.260Z,158984.59
2023-01-29T18:06:48.637Z,158967.66
2023-01-29T18:09:52.866Z,159001.53
2023-01-29T18:12:57.006Z,158996.34
2023-01-29T18:16:00.912Z,158992.41
2023-01-29T18:19:17.098Z,158980.69
2023-01-29T18:22:21.200Z,158965.06
2023-01-29T18:25:25.870Z,158982.00
2023-01-29T18:28:29.848Z,158966.38
2023-01-29T18:31:34.204Z,158954.66
2023-01-29T18:34:41.193Z,158954.66
2023-01-29T18:37:46.021Z,158961.16
2023-01-29T18:40:50.389Z,158953.34
2023-01-29T18:43:54.309Z,158959.84
2023-01-29T18:46:58.484Z,158940.38
2023-01-29T18:50:02.619Z,158941.69
2023-01-29T18:53:09.768Z,158940.38
2023-01-29T18:56:14.106Z,158924.75
2023-01-29T18:59:18.054Z,158942.97
2023-01-29T19:02:22.148Z,158937.78
2023-01-29T19:05:25.984Z,158927.34
2023-01-29T19:08:30.636Z,158927.34
2023-01-29T19:11:34.684Z,158935.16
2023-01-29T19:14:38.924Z,158927.34
2023-01-29T19:17:42.905Z,158890.88
2023-01-29T19:20:46.970Z,158896.09
2023-01-29T19:23:51.163Z,158911.72
2023-01-29T19:26:55.527Z,158890.88
2023-01-29T19:30:00.035Z,158888.28
2023-01-29T19:33:04.467Z,158897.38
2023-01-29T19:36:09.360Z,158884.41
2023-01-29T19:39:14.666Z,158886.97
2023-01-29T19:42:20.318Z,158875.28
2023-01-29T19:45:49.099Z,158858.34
2023-01-29T19:48:50.510Z,158855.75
2023-01-29T19:51:56.005Z,158854.44
2023-01-29T19:55:05.751Z,158853.13
2023-01-29T19:58:10.323Z,158849.22
2023-01-29T20:01:17.453Z,158816.66
2023-01-29T20:04:21.327Z,158825.78
2023-01-29T20:07:25.469Z,158831.00
2023-01-29T20:10:29.560Z,158829.69
2023-01-29T20:13:34.075Z,158823.16
2023-01-29T20:16:38.516Z,158812.78
2023-01-29T20:19:44.547Z,158836.19
2023-01-29T20:22:48.539Z,158819.25
2023-01-29T20:25:52.696Z,158828.38
2023-01-29T20:28:56.789Z,158815.34
2023-01-29T20:32:02.169Z,158815.34
2023-01-29T20:35:06.794Z,158815.34
2023-01-29T20:38:10.885Z,158811.44
2023-01-29T20:41:17.628Z,158815.34
2023-01-29T20:44:21.682Z,158820.56
2023-01-29T20:47:25.650Z,158801.06
2023-01-29T20:50:29.595Z,158815.34
2023-01-29T20:53:34.068Z,158801.06
2023-01-29T20:56:40.828Z,158786.72
2023-01-29T20:59:46.767Z,158759.41
2023-01-29T21:02:51.077Z,158738.56
2023-01-29T21:05:58.973Z,158763.31
2023-01-29T21:09:03.405Z,158747.69
2023-01-29T21:12:07.750Z,158747.69
2023-01-29T21:15:11.756Z,158728.13
2023-01-29T21:18:15.901Z,158703.41
2023-01-29T21:21:20.137Z,158685.28
2023-01-29T21:24:25.025Z,158686.59
2023-01-29T21:27:29.308Z,158690.50
2023-01-29T21:30:33.905Z,158681.38
2023-01-29T21:33:38.215Z,158685.28
2023-01-29T21:36:42.369Z,158704.72
2023-01-29T21:39:46.665Z,158689.16
2023-01-29T21:43:10.346Z,158695.63
2023-01-29T21:46:16.060Z,158669.66
2023-01-29T21:49:20.028Z,158656.66
2023-01-29T21:52:24.097Z,158650.13
2023-01-29T21:55:28.515Z,158620.22
2023-01-29T21:58:32.442Z,158607.22
2023-01-29T22:01:38.737Z,158588.97
2023-01-29T22:04:43.247Z,158615.00
2023-01-29T22:07:49.165Z,158621.50
2023-01-29T22:10:52.886Z,158620.22
2023-01-29T22:13:57.004Z,158617.59
2023-01-29T22:17:01.170Z,158631.94
2023-01-29T22:20:06.395Z,158644.94
2023-01-29T22:23:12.494Z,158641.06
2023-01-29T22:26:17.435Z,158654.00
2023-01-29T22:29:21.967Z,158643.63
2023-01-29T22:32:26.096Z,158664.44
2023-01-29T22:35:30.866Z,158654.00
2023-01-29T22:38:35.093Z,158655.34
2023-01-29T22:41:39.341Z,158650.13
2023-01-29T22:44:43.427Z,158656.66
2023-01-29T22:47:47.517Z,158656.66
2023-01-29T22:51:11.822Z,158669.66
2023-01-29T22:54:16.036Z,158678.75
2023-01-29T22:57:20.368Z,158681.38
2023-01-29T23:00:24.664Z,158708.63
2023-01-29T23:03:28.777Z,158712.53
2023-01-29T23:06:32.945Z,158706.03
2023-01-29T23:09:37.008Z,158708.63
2023-01-29T23:12:41.336Z,158696.94
2023-01-29T23:15:45.087Z,158728.13
2023-01-29T23:18:51.689Z,158729.44
2023-01-29T23:21:55.332Z,158742.47
2023-01-29T23:25:00.261Z,158713.84
2023-01-29T23:28:04.698Z,158720.34
2023-01-29T23:31:08.715Z,158716.44
2023-01-29T23:34:13.780Z,158696.94
2023-01-29T23:37:17.944Z,158673.56
2023-01-29T23:40:22.583Z,158643.63
2023-01-29T23:43:28.163Z,158626.72
2023-01-29T23:46:32.704Z,158605.91
2023-01-29T23:49:36.713Z,158604.56
2023-01-29T23:52:40.702Z,158588.97
2023-01-29T23:55:54.845Z,158563.00
2023-01-29T23:58:59.057Z,158577.28
